Time;durP1;ratioP1;P1;durP2;ratioP2;P2;SDS_P1;SDS_P2;PMS_P1;PMS_P2;Temp;Humidity;BMP_temperature;BMP_pressure;BME280_temperature;BME280_humidity;BME280_pressure;Samples;Min_cycle;Max_cycle;Signal;HPM_P1;HPM_P2
2022/01/25 00:08:23;;;;;;;13.38;11.23;;;;;;;18.55;42.81;103345.91;5055175;28;20114;-70
2022/01/25 00:33:29;;;;;;;15.00;10.60;;;;;;;18.30;43.17;103346.09;5054223;28;20037;-70
2022/01/25 00:35:55;;;;;;;12.75;11.30;;;;;;;18.27;42.99;103344.44;5053529;28;20020;-70
2022/01/25 00:38:20;;;;;;;12.65;10.95;;;;;;;18.26;42.91;103348.03;5053968;28;20104;-70
2022/01/25 00:40:45;;;;;;;14.75;10.57;;;;;;;18.23;42.70;103347.28;5054160;28;20045;-71
2022/01/25 00:43:14;;;;;;;13.55;10.60;;;;;;;18.23;43.14;103356.06;5053369;28;20040;-71
2022/01/25 00:45:39;;;;;;;16.20;11.35;;;;;;;18.21;43.26;103349.13;5054186;28;20029;-70
2022/01/25 00:48:07;;;;;;;13.10;10.52;;;;;;;18.20;43.01;103355.31;5053428;28;20029;-70
2022/01/25 00:50:39;;;;;;;13.63;10.52;;;;;;;18.18;43.35;103355.38;5053922;28;20021;-70
2022/01/25 00:55:32;;;;;;;14.43;11.25;;;;;;;18.13;43.09;103345.06;5053102;28;20032;-70
2022/01/25 00:57:59;;;;;;;16.23;11.10;;;;;;;18.11;43.20;103341.59;5054566;28;20117;-70
2022/01/25 01:00:24;;;;;;;12.30;10.27;;;;;;;18.10;43.40;103350.44;5053721;28;20017;-70
2022/01/25 01:02:50;;;;;;;12.82;10.13;;;;;;;18.08;43.24;103341.72;5053586;28;20029;-71
2022/01/25 01:05:15;;;;;;;16.83;10.93;;;;;;;18.07;43.16;103342.66;5053563;28;20036;-70
2022/01/25 01:07:42;;;;;;;11.73;9.85;;;;;;;18.06;43.22;103348.84;5053665;28;20025;-70
2022/01/25 01:10:14;;;;;;;13.30;10.43;;;;;;;18.05;43.51;103348.91;5052912;28;20541;-71
2022/01/25 01:13:12;;;;;;;13.98;10.25;;;;;;;18.03;43.24;103340.22;5053905;28;20032;-70
2022/01/25 01:15:44;;;;;;;13.43;10.05;;;;;;;18.02;43.21;103343.75;5053159;28;20033;-70
2022/01/25 01:30:08;;;;;;;12.68;9.60;;;;;;;17.90;43.61;103347.78;5053531;28;20048;-70
2022/01/25 01:37:35;;;;;;;12.75;10.00;;;;;;;17.87;43.63;103350.50;5053569;28;20029;-69
2022/01/25 01:40:15;;;;;;;12.70;9.48;;;;;;;17.86;43.82;103348.78;5052929;28;20097;-70
2022/01/25 01:48:04;;;;;;;13.55;9.40;;;;;;;17.82;43.85;103344.56;5057310;28;19966;-69
2022/01/25 01:50:33;;;;;;;12.30;9.20;;;;;;;17.80;43.61;103342.00;5052616;28;20483;-69
2022/01/25 01:52:59;;;;;;;12.32;8.90;;;;;;;17.79;43.46;103353.44;5052411;28;20024;-70
2022/01/25 01:55:27;;;;;;;11.48;9.07;;;;;;;17.78;43.82;103354.34;5052468;28;20518;-69
2022/01/25 01:57:53;;;;;;;11.77;9.27;;;;;;;17.75;43.92;103349.19;5052879;28;20059;-69
2022/01/25 02:00:23;;;;;;;11.48;8.98;;;;;;;17.74;43.70;103356.25;5051973;28;20025;-70
2022/01/25 02:02:48;;;;;;;12.65;9.55;;;;;;;17.74;43.59;103361.53;5053079;28;20025;-69
2022/01/25 02:05:14;;;;;;;10.23;8.52;;;;;;;17.77;43.88;103356.16;5052194;28;20087;-70
2022/01/25 02:07:39;;;;;;;12.68;9.02;;;;;;;17.79;44.06;103349.97;5051871;28;20060;-70
2022/01/25 02:10:09;;;;;;;12.30;9.03;;;;;;;17.81;43.91;103348.13;5052669;28;20108;-69
2022/01/25 02:12:37;;;;;;;11.80;9.07;;;;;;;17.86;43.70;103346.13;5051961;28;20285;-70
2022/01/25 02:15:04;;;;;;;13.52;9.27;;;;;;;17.86;43.83;103347.00;5052819;28;20388;-70
2022/01/25 02:22:56;;;;;;;12.60;8.57;;;;;;;17.93;43.49;103345.00;5052884;28;20380;-70
2022/01/25 02:25:23;;;;;;;13.68;9.68;;;;;;;17.95;43.50;103343.16;5052141;28;20021;-71
2022/01/25 02:27:48;;;;;;;12.40;8.85;;;;;;;17.95;43.12;103336.09;5051806;28;20040;-70
2022/01/25 02:30:14;;;;;;;11.07;8.40;;;;;;;17.95;43.36;103336.09;5052148;28;20468;-71
2022/01/25 02:32:39;;;;;;;11.10;8.80;;;;;;;17.98;43.12;103337.75;5052331;28;20032;-71
2022/01/25 02:35:06;;;;;;;11.35;8.00;;;;;;;17.97;42.87;103327.28;5051345;28;20070;-70
2022/01/25 02:37:31;;;;;;;11.90;8.43;;;;;;;17.98;43.05;103329.00;5052259;28;20147;-70
2022/01/25 02:39:57;;;;;;;9.85;8.57;;;;;;;17.98;43.32;103331.63;5052330;28;20099;-70
2022/01/25 02:42:26;;;;;;;11.35;8.55;;;;;;;17.98;43.03;103321.94;5050939;28;20052;-70
2022/01/25 02:44:54;;;;;;;12.43;8.85;;;;;;;17.98;43.00;103321.09;5052472;28;20021;-70
2022/01/25 02:50:04;;;;;;;11.55;8.73;;;;;;;17.97;42.89;103317.56;5052608;28;20549;-70
2022/01/25 02:52:32;;;;;;;11.05;8.55;;;;;;;17.95;42.80;103319.41;5051946;28;20043;-70
2022/01/25 02:54:57;;;;;;;11.75;8.75;;;;;;;17.95;42.83;103319.41;5051403;28;20485;-70
2022/01/25 02:57:23;;;;;;;11.98;8.82;;;;;;;17.96;43.20;103318.50;5051898;28;20041;-70
2022/01/25 02:59:49;;;;;;;13.32;9.13;;;;;;;17.95;43.25;103320.25;5052212;28;20024;-70
2022/01/25 03:02:14;;;;;;;10.82;8.88;;;;;;;17.95;43.29;103316.78;5051018;28;20476;-70
2022/01/25 03:04:39;;;;;;;13.27;8.55;;;;;;;17.95;43.36;103319.41;5052286;28;20166;-71
2022/01/25 03:07:05;;;;;;;12.45;8.77;;;;;;;17.97;43.48;103308.81;5052213;28;20032;-71
2022/01/25 03:09:31;;;;;;;11.98;8.95;;;;;;;17.98;43.24;103316.66;5051108;28;20417;-69
2022/01/25 03:11:58;;;;;;;12.80;8.85;;;;;;;17.98;43.19;103307.88;5052298;28;20025;-69
2022/01/25 03:14:27;;;;;;;10.68;8.00;;;;;;;17.99;43.17;103310.47;5051680;28;20043;-71
2022/01/25 03:17:07;;;;;;;9.50;7.90;;;;;;;18.00;42.98;103314.81;5051370;28;20105;-70
2022/01/25 03:22:16;;;;;;;11.95;8.98;;;;;;;18.02;43.31;103301.53;5051952;28;20044;-70
2022/01/25 03:24:42;;;;;;;10.63;8.23;;;;;;;18.02;42.96;103296.25;5051216;28;20112;-71
2022/01/25 03:27:08;;;;;;;13.30;8.13;;;;;;;18.02;42.73;103297.13;5051362;28;20124;-70
2022/01/25 03:29:33;;;;;;;10.10;8.73;;;;;;;17.97;42.99;103293.81;5051721;28;20032;-70
2022/01/25 03:31:58;;;;;;;10.13;8.47;;;;;;;18.00;42.74;103296.31;5051345;28;20021;-70
2022/01/25 03:34:23;;;;;;;11.07;8.50;;;;;;;17.98;42.96;103300.81;5051532;28;20274;-69
2022/01/25 03:36:49;;;;;;;11.13;8.88;;;;;;;17.97;42.65;103292.97;5051053;28;20079;-70
2022/01/25 03:39:15;;;;;;;13.25;9.57;;;;;;;17.98;42.57;103298.19;5051222;28;20044;-70
2022/01/25 03:41:40;;;;;;;14.40;9.43;;;;;;;17.97;42.89;103288.53;5051620;28;20025;-70
2022/01/25 03:44:06;;;;;;;12.90;9.45;;;;;;;17.97;42.98;103291.19;5051051;28;20429;-70
2022/01/25 03:51:42;;;;;;;10.68;8.40;;;;;;;17.93;42.95;103287.81;5054782;28;20135;-70
2022/01/25 03:54:11;;;;;;;12.88;9.55;;;;;;;17.93;42.92;103301.00;5054802;28;20387;-69
2022/01/25 03:56:37;;;;;;;11.95;9.75;;;;;;;17.94;43.54;103291.31;5054987;28;20052;-70
2022/01/25 03:59:05;;;;;;;12.82;9.48;;;;;;;17.94;43.55;103293.94;5054093;28;20484;-70
2022/01/25 04:01:34;;;;;;;12.32;9.40;;;;;;;17.94;43.76;103299.22;5054627;28;20468;-70
2022/01/25 04:04:12;;;;;;;13.27;9.82;;;;;;;17.94;43.25;103294.81;5055229;28;20025;-69
2022/01/25 04:06:38;;;;;;;12.77;9.77;;;;;;;17.94;43.47;103296.59;5054080;28;20036;-69
2022/01/25 04:09:07;;;;;;;11.93;8.95;;;;;;;17.97;43.57;103303.53;5054961;28;20025;-70
2022/01/25 04:11:33;;;;;;;11.57;9.75;;;;;;;17.95;43.11;103311.50;5054951;28;20087;-70
2022/01/25 04:13:59;;;;;;;11.55;8.48;;;;;;;17.96;43.00;103313.22;5054263;28;20036;-70
2022/01/25 04:16:31;;;;;;;15.05;9.45;;;;;;;17.96;43.25;103310.59;5054391;28;20461;-71
2022/01/25 04:21:39;;;;;;;12.60;9.73;;;;;;;17.96;43.14;103302.69;5053508;28;20060;-70
2022/01/25 04:26:52;;;;;;;12.45;9.30;;;;;;;17.98;43.72;103306.09;5054051;28;20036;-71
2022/01/25 04:29:20;;;;;;;13.07;9.68;;;;;;;17.99;43.80;103296.38;5054342;28;20037;-70
2022/01/25 04:31:46;;;;;;;12.60;9.57;;;;;;;17.98;43.77;103300.81;5054477;28;20028;-70
2022/01/25 04:34:37;;;;;;;11.57;9.93;;;;;;;18.01;43.70;103292.78;5053511;28;20098;-70
2022/01/25 04:51:19;;;;;;;12.13;9.45;;;;;;;18.01;43.23;103294.53;5054352;28;20044;-71
2022/01/25 04:53:53;;;;;;;13.10;9.57;;;;;;;18.00;43.24;103296.31;5054022;28;20045;-70
2022/01/25 04:56:29;;;;;;;14.45;10.32;;;;;;;18.00;43.03;103291.06;5053369;28;20103;-70
2022/01/25 04:59:04;;;;;;;13.40;9.68;;;;;;;18.00;42.95;103290.19;5053919;28;20476;-70
2022/01/25 05:01:30;;;;;;;11.50;9.57;;;;;;;18.00;43.61;103282.28;5053033;28;20035;-70
2022/01/25 05:04:05;;;;;;;13.70;10.60;;;;;;;18.00;43.55;103284.94;5054437;28;20029;-70
2022/01/25 05:06:32;;;;;;;13.15;9.15;;;;;;;18.00;43.80;103287.56;5054208;28;20037;-70
2022/01/25 05:09:06;;;;;;;11.63;9.95;;;;;;;18.02;43.43;103285.72;5054067;28;20029;-69
2022/01/25 05:11:35;;;;;;;11.98;9.48;;;;;;;18.01;43.64;103282.22;5054717;28;20020;-71
2022/01/25 05:16:38;;;;;;;11.75;9.10;;;;;;;18.03;43.67;103280.38;5055050;28;20116;-70
2022/01/25 05:24:19;;;;;;;;;;;;;;;18.00;43.33;103277.84;5068917;28;20032;-70
2022/01/25 05:26:44;;;;;;;13.57;10.18;;;;;;;18.02;43.40;103285.72;5069371;28;20292;-70
2022/01/25 05:29:10;;;;;;;12.90;9.70;;;;;;;18.00;43.34;103279.66;5069054;28;20056;-70
2022/01/25 05:31:36;;;;;;;15.48;10.43;;;;;;;18.00;43.30;103279.66;5067649;28;20021;-70
2022/01/25 05:34:02;;;;;;;12.70;10.02;;;;;;;18.02;43.33;103285.72;5069308;28;20036;-71
2022/01/25 05:36:27;;;;;;;14.13;10.38;;;;;;;18.01;43.52;103282.22;5059734;28;20041;-70
2022/01/25 05:38:56;;;;;;;15.48;11.15;;;;;;;18.02;43.56;103281.28;5053866;28;20469;-70
2022/01/25 05:41:26;;;;;;;15.32;10.55;;;;;;;18.03;43.57;103275.09;5055691;28;20560;-71
2022/01/25 05:44:21;;;;;;;14.70;10.30;;;;;;;18.03;43.39;103279.53;5058714;28;20028;-70
2022/01/25 05:49:21;;;;;;;14.10;10.73;;;;;;;18.04;43.42;103273.31;5052775;28;20108;-70
2022/01/25 05:51:46;;;;;;;15.55;12.02;;;;;;;18.04;43.23;103274.19;5052501;28;20041;-71
2022/01/25 05:54:13;;;;;;;14.67;11.13;;;;;;;18.03;43.15;103280.38;5052602;28;20025;-71
2022/01/25 05:56:38;;;;;;;15.63;11.55;;;;;;;18.02;43.38;103276.00;5052897;28;20281;-71
2022/01/25 05:59:03;;;;;;;15.07;11.73;;;;;;;18.04;43.16;103278.56;5052073;28;20021;-71
2022/01/25 06:01:29;;;;;;;17.33;11.82;;;;;;;18.04;43.46;103270.66;5052317;28;20480;-71
2022/01/25 06:03:55;;;;;;;13.18;11.63;;;;;;;18.05;43.64;103277.66;5052988;28;20105;-71
2022/01/25 06:06:23;;;;;;;15.27;10.75;;;;;;;18.05;44.42;103272.38;5051297;28;20063;-69
2022/01/25 06:08:48;;;;;;;14.82;10.75;;;;;;;18.07;44.87;103271.41;5052515;28;20052;-70
2022/01/25 06:11:14;;;;;;;14.88;10.75;;;;;;;18.11;45.33;103274.78;5052197;28;20060;-70
2022/01/25 06:13:39;;;;;;;15.48;11.55;;;;;;;18.12;45.20;103274.72;5051688;28;20492;-69
2022/01/25 06:16:06;;;;;;;15.57;10.63;;;;;;;18.13;45.46;103273.78;5052494;28;20045;-70
2022/01/25 06:18:31;;;;;;;12.40;8.95;;;;;;;18.18;45.36;103275.34;5052485;28;20029;-70
2022/01/25 06:20:59;;;;;;;13.93;9.30;;;;;;;18.19;45.56;103267.38;5052100;28;20021;-70
2022/01/25 06:23:25;;;;;;;16.85;10.15;;;;;;;18.20;45.84;103269.09;5052188;28;20044;-69
2022/01/25 06:25:50;;;;;;;13.13;9.45;;;;;;;18.23;45.84;103274.25;5051664;28;20066;-71
2022/01/25 06:28:16;;;;;;;12.95;9.15;;;;;;;18.24;45.61;103273.31;5052051;28;20384;-70
2022/01/25 06:30:41;;;;;;;12.45;9.43;;;;;;;18.24;45.88;103268.03;5052299;28;20115;-70
2022/01/25 06:33:08;;;;;;;12.80;9.68;;;;;;;18.27;45.63;103270.53;5051468;28;20104;-70
2022/01/25 06:35:34;;;;;;;13.63;9.70;;;;;;;18.28;45.51;103272.25;5052188;28;20032;-71
2022/01/25 06:37:59;;;;;;;12.35;9.43;;;;;;;18.31;45.33;103271.28;5052338;28;20036;-70
2022/01/25 06:40:25;;;;;;;16.00;9.65;;;;;;;18.32;45.20;103283.53;5049553;28;20134;-70
2022/01/25 06:42:50;;;;;;;13.57;10.50;;;;;;;18.32;45.28;103275.63;5052122;28;20041;-70
2022/01/25 06:45:19;;;;;;;15.13;9.65;;;;;;;18.30;45.22;103274.84;5051820;28;20029;-71
2022/01/25 06:47:46;;;;;;;14.32;10.23;;;;;;;18.35;45.06;103278.13;5051443;28;20044;-71
2022/01/25 06:50:13;;;;;;;14.13;10.75;;;;;;;18.34;45.13;103275.53;5051978;28;20025;-72
2022/01/25 06:52:41;;;;;;;14.27;9.98;;;;;;;18.37;45.29;103278.06;5051995;28;20024;-72
2022/01/25 06:55:09;;;;;;;14.30;9.68;;;;;;;18.38;45.36;103282.41;5051120;28;20104;-72
2022/01/25 06:57:35;;;;;;;14.80;10.23;;;;;;;18.39;45.46;103274.44;5051859;28;20056;-70
2022/01/25 07:00:00;;;;;;;14.75;9.23;;;;;;;18.40;45.60;103283.19;5052285;28;20033;-69
2022/01/25 07:02:26;;;;;;;15.18;10.02;;;;;;;18.41;45.48;103272.56;5050741;28;20554;-68
2022/01/25 07:04:52;;;;;;;16.80;12.70;;;;;;;18.39;43.23;103285.00;5052125;28;20021;-69
2022/01/25 07:07:17;;;;;;;14.98;10.93;;;;;;;18.40;44.70;103294.59;5051441;28;20461;-69
2022/01/25 07:09:42;;;;;;;13.67;9.90;;;;;;;18.42;45.10;103300.72;5051045;28;20029;-70
2022/01/25 07:12:08;;;;;;;13.07;9.27;;;;;;;18.44;45.49;103295.34;5051667;28;20849;-69
2022/01/25 07:14:33;;;;;;;12.75;9.50;;;;;;;18.45;45.29;103295.28;5052014;28;20607;-69
2022/01/25 07:16:59;;;;;;;14.63;9.38;;;;;;;18.47;45.69;103297.88;5051384;28;20017;-70
2022/01/25 07:19:25;;;;;;;12.30;8.43;;;;;;;18.47;45.20;103296.06;5051678;28;20025;-71
2022/01/25 07:21:52;;;;;;;12.68;8.80;;;;;;;18.51;45.15;103298.56;4942909;28;20038;-70
2022/01/25 07:24:18;;;;;;;11.80;9.23;;;;;;;18.51;45.28;103294.16;5003248;28;20044;-71
2022/01/25 07:26:43;;;;;;;11.98;8.52;;;;;;;18.53;45.55;103289.66;5015893;28;20026;-71
2022/01/25 07:29:08;;;;;;;13.15;9.43;;;;;;;18.55;45.50;103294.84;5014951;28;20382;-71
2022/01/25 07:31:34;;;;;;;13.35;9.05;;;;;;;18.57;45.11;103296.50;5015960;28;20022;-69
2022/01/25 07:33:59;;;;;;;11.90;8.63;;;;;;;18.58;45.31;103292.97;5016188;28;20080;-69
2022/01/25 07:36:28;;;;;;;12.65;8.93;;;;;;;18.60;45.10;103299.03;5014647;28;20505;-69
2022/01/25 07:38:53;;;;;;;11.80;8.95;;;;;;;18.63;45.25;103290.13;5015445;28;20088;-71
2022/01/25 07:41:20;;;;;;;14.23;9.93;;;;;;;18.64;45.44;103294.44;5015338;28;20022;-70
2022/01/25 07:43:46;;;;;;;10.95;8.65;;;;;;;18.65;45.28;103293.53;5015100;28;20291;-71
2022/01/25 07:46:20;;;;;;;12.23;9.37;;;;;;;18.66;45.39;103288.19;5015493;28;20532;-71
2022/01/25 07:48:45;;;;;;;13.85;9.32;;;;;;;18.67;45.29;103295.19;5015646;28;20279;-70
2022/01/25 07:51:11;;;;;;;13.10;8.95;;;;;;;18.70;45.37;103303.91;5014536;28;20056;-70
2022/01/25 07:53:37;;;;;;;14.88;9.43;;;;;;;18.70;45.66;103304.75;5015381;28;20097;-68
2022/01/25 07:56:03;;;;;;;14.05;9.40;;;;;;;18.71;45.32;103302.94;5015384;28;20026;-70
2022/01/25 07:58:28;;;;;;;16.20;9.38;;;;;;;18.71;45.55;103303.84;5014375;28;20044;-72
2022/01/25 08:00:54;;;;;;;12.80;9.30;;;;;;;18.72;45.39;103302.88;5015543;28;20025;-70
2022/01/25 08:03:19;;;;;;;12.77;9.70;;;;;;;18.73;45.58;103304.59;5015063;28;20354;-70
2022/01/25 08:05:45;;;;;;;14.55;9.40;;;;;;;18.72;45.64;103302.88;5014771;28;20046;-69
2022/01/25 08:08:11;;;;;;;12.52;9.43;;;;;;;18.75;45.49;103304.53;5014758;28;20034;-68
2022/01/25 08:10:37;;;;;;;12.63;9.05;;;;;;;18.76;45.79;103301.84;5015417;28;20033;-70
2022/01/25 08:13:02;;;;;;;13.07;9.98;;;;;;;18.78;45.90;103299.13;5015717;28;20018;-72
2022/01/25 08:15:28;;;;;;;13.18;9.63;;;;;;;18.79;45.43;103299.06;5015546;28;20034;-71
2022/01/25 08:17:56;;;;;;;16.40;11.02;;;;;;;18.82;44.30;103293.63;5015630;28;20200;-71
2022/01/25 08:20:22;;;;;;;13.02;10.07;;;;;;;18.90;44.90;103298.59;5014714;28;20048;-69
2022/01/25 08:22:47;;;;;;;12.48;9.82;;;;;;;18.98;44.87;103296.47;5015232;28;20469;-70
2022/01/25 08:25:15;;;;;;;14.48;10.40;;;;;;;19.06;44.90;103311.09;5014340;28;20084;-69
2022/01/25 08:27:41;;;;;;;13.75;9.77;;;;;;;19.12;44.82;103311.69;5016207;28;20062;-70
2022/01/25 08:30:06;;;;;;;12.37;9.77;;;;;;;19.18;44.90;103311.41;5016108;28;20029;-72
2022/01/25 08:32:32;;;;;;;15.00;10.48;;;;;;;19.24;44.75;103315.53;5014369;28;20361;-68
2022/01/25 08:34:58;;;;;;;16.90;10.32;;;;;;;19.32;44.59;103313.38;5015269;28;20449;-70
2022/01/25 08:37:23;;;;;;;16.08;9.77;;;;;;;19.38;45.05;103315.72;5015746;28;20386;-69
2022/01/25 08:39:48;;;;;;;18.73;9.77;;;;;;;19.44;45.01;103311.94;5014264;28;20053;-71
2022/01/25 08:42:14;;;;;;;17.67;9.60;;;;;;;19.51;44.39;103313.34;5017844;28;20065;-69
2022/01/25 08:44:39;;;;;;;14.07;9.38;;;;;;;19.55;44.59;103314.91;5016531;28;20286;-71
2022/01/25 08:47:05;;;;;;;13.65;9.52;;;;;;;19.56;44.75;103311.31;5015371;28;20113;-70
2022/01/25 08:49:30;;;;;;;17.48;10.15;;;;;;;19.61;44.39;103313.75;5014518;28;20600;-70
2022/01/25 08:51:57;;;;;;;16.60;9.60;;;;;;;19.65;44.21;103315.31;5014660;28;20022;-71
2022/01/25 08:54:23;;;;;;;15.55;10.38;;;;;;;19.68;44.38;103314.31;5016758;28;20172;-70
2022/01/25 08:56:55;;;;;;;15.57;9.75;;;;;;;19.63;43.86;103309.25;5014595;28;20101;-67
2022/01/25 08:59:20;;;;;;;16.63;10.25;;;;;;;19.56;44.17;103321.06;5013851;28;20141;-67
2022/01/25 09:01:46;;;;;;;14.32;10.77;;;;;;;19.49;44.28;103324.94;5013610;28;20113;-68
2022/01/25 09:04:11;;;;;;;12.63;9.95;;;;;;;19.42;44.30;103321.72;5014048;28;20026;-68
2022/01/25 09:06:36;;;;;;;13.02;9.85;;;;;;;19.37;44.69;103323.72;5014011;28;20030;-67
2022/01/25 09:09:08;;;;;;;13.45;10.80;;;;;;;19.33;44.74;103330.97;5013311;28;20042;-68
2022/01/25 09:11:35;;;;;;;12.68;9.65;;;;;;;19.28;44.80;103326.81;5014083;28;20037;-68
2022/01/25 09:14:01;;;;;;;13.23;10.25;;;;;;;19.24;44.78;103323.44;5014243;28;20133;-67
2022/01/25 09:16:26;;;;;;;14.68;10.50;;;;;;;19.23;45.35;103331.44;5013145;28;20525;-67
2022/01/25 09:18:52;;;;;;;14.40;10.45;;;;;;;19.20;45.16;103329.78;5014108;28;20100;-67
2022/01/25 09:21:20;;;;;;;14.20;10.55;;;;;;;19.18;44.98;103326.38;5013518;28;20022;-67
2022/01/25 09:23:45;;;;;;;14.43;11.02;;;;;;;19.16;45.07;103333.53;5013589;28;20030;-67
2022/01/25 09:26:14;;;;;;;13.82;10.63;;;;;;;19.14;44.98;103330.13;5013755;28;20504;-67
2022/01/25 09:28:39;;;;;;;12.75;10.50;;;;;;;19.12;45.08;103324.91;5012973;28;20541;-67
2022/01/25 09:31:05;;;;;;;15.75;11.68;;;;;;;19.10;45.23;103332.03;5013756;28;20028;-67
2022/01/25 09:33:36;;;;;;;16.08;11.68;;;;;;;19.08;45.24;103325.94;5013398;28;20069;-68
2022/01/25 09:36:04;;;;;;;14.13;11.68;;;;;;;19.09;45.43;103332.97;5012918;28;20052;-68
2022/01/25 09:38:31;;;;;;;17.77;11.63;;;;;;;19.08;45.39;103333.03;5013746;28;20121;-68
2022/01/25 09:41:00;;;;;;;15.10;11.77;;;;;;;19.06;45.15;103335.75;5013613;28;20050;-69
2022/01/25 09:43:27;;;;;;;17.83;12.90;;;;;;;19.05;45.19;103328.75;5012485;28;20037;-70
2022/01/25 09:45:52;;;;;;;15.48;12.68;;;;;;;19.05;45.13;103333.19;5013505;28;20041;-67
2022/01/25 09:48:17;;;;;;;17.02;13.18;;;;;;;19.03;45.22;103328.81;5013002;28;20042;-67
2022/01/25 09:50:43;;;;;;;16.08;12.48;;;;;;;19.02;45.36;103336.81;5012886;28;20076;-68
2022/01/25 09:53:11;;;;;;;15.73;12.93;;;;;;;19.01;45.50;103341.25;5013239;28;20064;-67
2022/01/25 09:55:41;;;;;;;16.27;13.27;;;;;;;19.01;45.47;103340.41;5013360;28;20037;-67
2022/01/25 09:58:08;;;;;;;16.00;12.52;;;;;;;18.99;45.42;103348.41;5012360;28;20489;-68
2022/01/25 10:00:36;;;;;;;15.68;12.65;;;;;;;18.99;44.96;103347.50;5013009;28;20499;-67
2022/01/25 10:05:45;;;;;;;18.00;13.80;;;;;;;18.98;45.20;103344.03;5012479;28;20029;-67
2022/01/25 10:08:27;;;;;;;17.85;13.90;;;;;;;18.97;45.23;103350.22;5012771;28;20033;-67
2022/01/25 10:11:03;;;;;;;17.55;14.27;;;;;;;18.96;45.45;103353.81;5012455;28;20113;-67
2022/01/25 10:13:35;;;;;;;16.20;13.55;;;;;;;18.96;45.43;103347.66;5012602;28;20026;-66
2022/01/25 10:16:02;;;;;;;19.58;15.70;;;;;;;18.94;45.68;103347.72;5013146;28;20030;-66
2022/01/25 10:18:39;;;;;;;16.67;14.48;;;;;;;18.95;45.24;103354.72;5011770;28;20508;-66
2022/01/25 10:21:11;;;;;;;19.63;13.98;;;;;;;18.95;45.34;103353.88;5012999;28;20029;-67
2022/01/25 10:23:37;;;;;;;17.13;13.85;;;;;;;18.95;45.25;103345.97;5012934;28;20033;-67
2022/01/25 10:26:02;;;;;;;18.65;14.75;;;;;;;18.95;45.64;103354.72;5012110;28;20030;-67
2022/01/25 10:28:29;;;;;;;18.58;14.80;;;;;;;18.94;45.39;103355.66;5012589;28;20118;-67
2022/01/25 10:31:05;;;;;;;20.02;14.07;;;;;;;18.94;45.67;103352.16;5012776;28;20378;-67
2022/01/25 10:33:36;;;;;;;16.98;14.23;;;;;;;18.93;45.74;103348.66;5011792;28;20030;-68
2022/01/25 10:36:22;;;;;;;18.63;16.02;;;;;;;18.91;43.50;103347.84;5012752;28;20018;-68
2022/01/25 10:38:49;;;;;;;18.95;16.67;;;;;;;18.90;44.52;103347.94;5012474;28;20030;-68
2022/01/25 10:41:20;;;;;;;23.08;19.65;;;;;;;18.87;43.32;103353.34;5012795;28;20034;-68
2022/01/25 10:43:49;;;;;;;21.23;17.17;;;;;;;18.90;44.40;103350.56;5014942;28;20026;-71
2022/01/25 10:46:26;;;;;;;20.35;16.65;;;;;;;19.01;44.75;103354.47;5012151;28;20057;-70
2022/01/25 10:48:56;;;;;;;19.00;16.13;;;;;;;19.12;44.67;103342.53;5013230;28;20041;-70
2022/01/25 10:51:30;;;;;;;20.75;16.33;;;;;;;19.24;43.90;103346.41;5013106;28;20088;-70
2022/01/25 10:54:07;;;;;;;20.83;16.85;;;;;;;19.35;43.99;103344.09;5013039;28;20066;-72
2022/01/25 10:56:45;;;;;;;22.35;18.90;;;;;;;19.36;42.56;103345.81;5015481;28;20033;-70
2022/01/25 10:59:15;;;;;;;22.67;17.00;;;;;;;19.39;43.32;103338.59;5016531;28;20030;-69
2022/01/25 11:01:48;;;;;;;22.08;17.92;;;;;;;19.43;43.73;103343.75;5016108;28;20029;-72
2022/01/25 11:04:19;;;;;;;21.03;15.80;;;;;;;19.47;44.09;103340.88;5016616;28;20114;-70
2022/01/25 11:06:45;;;;;;;21.27;16.38;;;;;;;19.50;44.55;103345.16;5016654;28;20318;-71
2022/01/25 11:09:12;;;;;;;21.88;15.73;;;;;;;19.54;44.07;103341.44;5015580;28;20384;-72
2022/01/25 11:11:51;;;;;;;19.98;16.85;;;;;;;19.58;44.23;103333.28;5016383;28;20026;-69
2022/01/25 11:17:02;;;;;;;19.13;15.80;;;;;;;19.66;44.25;103342.63;5016455;28;20029;-70
2022/01/25 11:19:28;;;;;;;20.50;16.60;;;;;;;19.68;43.72;103349.56;5015978;28;20132;-71
2022/01/25 11:21:55;;;;;;;23.02;16.85;;;;;;;19.70;43.70;103341.56;5015833;28;20112;-69
2022/01/25 11:24:23;;;;;;;22.60;17.77;;;;;;;19.69;43.46;103348.66;5015979;28;20030;-71
2022/01/25 11:26:50;;;;;;;22.60;17.75;;;;;;;19.71;43.00;103346.78;5016361;28;20056;-71
2022/01/25 11:29:16;;;;;;;20.48;16.77;;;;;;;19.68;43.27;103338.13;5015406;28;20045;-69
2022/01/25 11:31:47;;;;;;;20.63;16.77;;;;;;;19.65;43.21;103347.06;5016116;28;20033;-68
2022/01/25 11:34:14;;;;;;;23.52;18.15;;;;;;;19.65;43.61;103347.06;5016133;28;20045;-70
2022/01/25 11:36:52;;;;;;;23.90;17.60;;;;;;;19.68;44.63;103344.28;5015146;28;20040;-70
2022/01/25 11:39:26;;;;;;;24.08;17.45;;;;;;;19.71;44.75;103337.97;5015773;28;20046;-70
2022/01/25 11:42:02;;;;;;;23.00;16.98;;;;;;;19.72;44.76;103345.81;5016448;28;20022;-68
2022/01/25 11:44:27;;;;;;;21.05;17.40;;;;;;;19.75;45.00;103345.66;5015013;28;20434;-69
2022/01/25 11:47:10;;;;;;;26.23;17.85;;;;;;;19.77;45.09;103342.13;5015674;28;20072;-70
2022/01/25 11:49:48;;;;;;;25.75;18.15;;;;;;;19.77;44.98;103345.63;5015067;28;20462;-68
2022/01/25 11:52:14;;;;;;;24.45;19.60;;;;;;;19.72;45.19;103342.34;5015611;28;20030;-70
2022/01/25 11:54:41;;;;;;;24.45;18.92;;;;;;;19.65;45.17;103339.13;5015699;28;20034;-70
2022/01/25 11:57:25;;;;;;;24.80;18.60;;;;;;;19.61;45.18;103342.84;5015008;28;20113;-71
2022/01/25 11:59:53;;;;;;;24.33;19.38;;;;;;;19.56;45.35;103348.34;5015753;28;20482;-73
2022/01/25 12:02:40;;;;;;;25.25;19.02;;;;;;;19.54;45.50;103331.72;5015403;28;20038;-72
2022/01/25 12:05:27;;;;;;;25.00;18.83;;;;;;;19.55;45.30;103341.38;5014812;28;20377;-73
2022/01/25 12:08:12;;;;;;;21.48;18.13;;;;;;;19.54;45.57;103326.41;5014759;28;20026;-72
2022/01/25 12:10:44;;;;;;;24.88;21.88;;;;;;;19.52;44.38;103336.22;5014754;28;20405;-74
2022/01/25 12:13:25;;;;;;;23.30;18.13;;;;;;;19.55;45.44;103327.25;5018945;28;20591;-72
2022/01/25 12:16:30;;;;;;;25.13;19.73;;;;;;;19.60;45.72;103327.03;5016609;28;20043;-67
2022/01/25 12:18:56;;;;;;;;;;;;;;;19.53;45.59;103316.75;5014746;28;20041;-68
2022/01/25 12:21:46;;;;;;;24.20;18.50;;;;;;;19.45;45.55;103323.38;5014906;28;19913;-69
2022/01/25 12:24:35;;;;;;;27.45;19.38;;;;;;;19.41;45.71;103327.94;5014616;28;20482;-67
2022/01/25 12:30:03;;;;;;;24.65;21.10;;;;;;;19.22;45.55;103320.03;5015262;28;20048;-68
2022/01/25 12:32:37;;;;;;;23.98;20.05;;;;;;;19.16;45.40;103325.59;5013786;28;20087;-66
2022/01/25 12:35:10;;;;;;;22.27;19.25;;;;;;;19.13;45.68;103312.53;5014738;28;20030;-67
2022/01/25 12:38:01;;;;;;;26.77;18.73;;;;;;;19.11;45.97;103311.75;5014849;28;20084;-67
2022/01/25 12:40:26;;;;;;;23.00;19.13;;;;;;;19.08;45.81;103310.09;5013509;28;20475;-68
2022/01/25 12:42:57;;;;;;;24.95;19.63;;;;;;;19.08;45.86;103309.25;5014717;28;20030;-69
2022/01/25 12:45:25;;;;;;;23.02;18.88;;;;;;;19.05;46.12;103304.94;5013917;28;20038;-68
2022/01/25 12:48:15;;;;;;;23.90;19.42;;;;;;;19.04;45.82;103305.88;5014756;28;20385;-68
2022/01/25 12:50:44;;;;;;;23.25;18.42;;;;;;;19.02;45.81;103305.94;5014611;28;20102;-68
2022/01/25 12:53:14;;;;;;;24.08;19.88;;;;;;;19.00;45.55;103306.97;5013353;28;20382;-68
2022/01/25 12:55:44;;;;;;;23.50;19.67;;;;;;;18.99;45.57;103302.59;5014476;28;20092;-68
2022/01/25 12:58:10;;;;;;;22.15;19.52;;;;;;;18.98;45.82;103301.75;5014062;28;20416;-68
2022/01/25 13:00:43;;;;;;;22.65;18.42;;;;;;;18.97;45.98;103299.16;5013566;28;20038;-68
2022/01/25 13:03:11;;;;;;;19.60;17.52;;;;;;;18.97;45.93;103291.25;5014153;28;20026;-69
2022/01/25 13:05:46;;;;;;;21.50;17.90;;;;;;;18.96;45.88;103287.75;5013951;28;20468;-68
2022/01/25 13:08:37;;;;;;;21.40;18.65;;;;;;;18.96;45.84;103281.59;5013044;28;20088;-68
2022/01/25 13:11:22;;;;;;;23.58;19.27;;;;;;;18.98;45.55;103277.13;5015232;28;20382;-69